KSOW/SOW METAR and TAF weather

Enter ICAO airport designator
Station Type Date Time Source
KSOW METAR 2019/02/16 01:35 UTC NOAA

KSOW 160135Z AUTO 20011KT 10SM BKN019 BKN045 07/03 A3001 RMK AO2


Station Type Date Time Source
KSOW Decoded METAR 2019/02/16 01:35 UTC NOAA

Show Low, Show Low Regional Airport, AZ, United States (KSOW) 34-15-55N 110-00-20W
Feb 15, 2019 - 08:35 PM EST / 2019.02.16 0135 UTC
Wind: from the SSW (200 degrees) at 13 MPH (11 KT):0
Visibility: 10 mile(s):0
Sky conditions: mostly cloudy
Temperature: 44 F (7 C)
Dew Point: 37 F (3 C)
Relative Humidity: 75%
Pressure (altimeter): 30.01 in. Hg (1016 hPa)
ob: KSOW 160135Z AUTO 20011KT 10SM BKN019 BKN045 07/03 A3001 RMK AO2
cycle: 1

Station Type Date Time Source
KSOW TAF UTC NOAA

Error!


Example: see airport list